Time;durP1;ratioP1;P1;durP2;ratioP2;P2;SDS_P1;SDS_P2;PMS_P1;PMS_P2;Temp;Humidity;BMP_temperature;BMP_pressure;BME280_temperature;BME280_humidity;BME280_pressure;Samples;Min_cycle;Max_cycle;Signal;HPM_P1;HPM_P2
2023/06/27 00:01:24;;;;;;;;;;;;;;;25.96;100.00;99429.88;5041491;28;19955;-73
2023/06/27 00:03:51;;;;;;;;;;;;;;;25.94;100.00;99426.59;5043751;28;19927;-73
2023/06/27 00:06:19;;;;;;;;;;;;;;;25.95;100.00;99433.63;5040594;28;20428;-74
2023/06/27 00:08:49;;;;;;;;;;;;;;;25.94;100.00;99426.59;5044234;28;19924;-73
2023/06/27 00:11:14;;;;;;;;;;;;;;;25.91;100.00;99427.09;5043355;28;20458;-74
2023/06/27 00:13:41;;;;;;;;;;;;;;;25.92;100.00;99428.75;5040528;28;19917;-74
2023/06/27 00:16:15;;;;;;;;;;;;;;;25.93;100.00;99425.75;5042629;28;20376;-75
2023/06/27 00:18:42;;;;;;;;;;;;;;;25.88;100.00;99416.75;5042810;28;20004;-74
2023/06/27 00:21:07;;;;;;;;;;;;;;;25.80;100.00;99415.25;5045055;28;20695;-74
2023/06/27 00:23:33;;;;;;;;;;;;;;;25.77;100.00;99412.25;5042368;28;20035;-75
2023/06/27 00:26:02;;;;;;;;;;;;;;;25.71;100.00;99418.63;5041493;28;19940;-75
2023/06/27 00:28:28;;;;;;;;;;;;;;;25.59;100.00;99424.09;5041513;28;20446;-74
2023/06/27 00:30:55;;;;;;;;;;;;;;;25.56;100.00;99419.16;5042316;28;20380;-75
2023/06/27 00:33:21;;;;;;;;;;;;;;;25.53;100.00;99425.84;5039978;28;20000;-75
2023/06/27 00:35:46;;;;;;;;;;;;;;;25.46;100.00;99418.97;5043645;28;19917;-75
2023/06/27 00:38:12;;;;;;;;;;;;;;;25.43;100.00;99425.69;5038738;28;19975;-74
2023/06/27 00:40:38;;;;;;;;;;;;;;;25.39;100.00;99424.50;5042336;28;19964;-75
2023/06/27 00:43:03;;;;;;;;;;;;;;;25.34;100.00;99427.13;5039257;28;19923;-75
2023/06/27 00:45:29;;;;;;;;;;;;;;;25.29;100.00;99427.03;5041310;28;19948;-74
2023/06/27 00:47:56;;;;;;;;;;;;;;;25.27;100.00;99421.06;5040679;28;19999;-74
2023/06/27 00:50:24;;;;;;;;;;;;;;;25.20;100.00;99421.22;5043209;28;19939;-75
2023/06/27 00:52:50;;;;;;;;;;;;;;;25.14;100.00;99422.16;5042884;28;19920;-75
2023/06/27 00:55:16;;;;;;;;;;;;;;;25.15;100.00;99417.59;5039467;28;20441;-74
2023/06/27 00:57:42;;;;;;;;;;;;;;;25.15;100.00;99417.59;5039413;28;19932;-73
2023/06/27 01:00:11;;;;;;;;;;;;;;;25.13;100.00;99414.28;5037850;28;20027;-75
2023/06/27 01:02:37;;;;;;;;;;;;;;;25.07;100.00;99415.25;5040000;28;20330;-75
2023/06/27 01:05:02;;;;;;;;;;;;;;;25.02;100.00;99415.16;5040026;28;19924;-75
2023/06/27 01:07:34;;;;;;;;;;;;;;;25.05;100.00;99417.38;5041131;28;19924;-75
2023/06/27 01:10:06;;;;;;;;;;;;;;;24.94;100.00;99410.13;5039991;28;19920;-75
2023/06/27 01:12:36;;;;;;;;;;;;;;;24.95;100.00;99406.38;5041679;28;19917;-76
2023/06/27 01:15:02;;;;;;;;;;;;;;;24.95;100.00;99407.19;5040981;28;20445;-74
2023/06/27 01:17:28;;;;;;;;;;;;;;;24.90;100.00;99408.97;5040990;28;20404;-73
2023/06/27 01:19:54;;;;;;;;;;;;;;;24.83;100.00;99414.47;5045519;28;19917;-74
2023/06/27 01:22:28;;;;;;;;;;;;;;;24.75;100.00;99410.25;5040157;28;19920;-75
2023/06/27 01:24:54;;;;;;;;;;;;;;;24.77;100.00;99412.72;5041602;28;19917;-74
2023/06/27 01:27:19;;;;;;;;;;;;;;;24.74;100.00;99400.50;5039672;28;19924;-74
2023/06/27 01:29:45;;;;;;;;;;;;;;;24.76;100.00;99409.22;5042483;28;19917;-74
2023/06/27 01:32:19;;;;;;;;;;;;;;;24.78;100.00;99401.69;5037946;28;19921;-74
2023/06/27 01:34:57;;;;;;;;;;;;;;;24.78;100.00;99407.09;5042906;28;20419;-73
2023/06/27 01:37:29;;;;;;;;;;;;;;;24.74;100.00;99408.59;5043431;28;19970;-74
2023/06/27 01:39:57;;;;;;;;;;;;;;;24.74;100.00;99405.13;5039755;28;19923;-74
2023/06/27 01:42:34;;;;;;;;;;;;;;;24.71;100.00;99395.63;5041087;28;20356;-75
2023/06/27 01:45:01;;;;;;;;;;;;;;;24.69;100.00;99392.31;5038738;28;20341;-73
2023/06/27 01:47:26;;;;;;;;;;;;;;;24.44;100.00;99389.09;5041349;28;19916;-74
2023/06/27 01:49:52;;;;;;;;;;;;;;;24.23;100.00;99393.19;5046461;28;19917;-75
2023/06/27 01:52:19;;;;;;;;;;;;;;;24.23;100.00;99387.00;5037900;28;19924;-74
2023/06/27 01:54:44;;;;;;;;;;;;;;;24.19;100.00;99394.75;5041172;28;20284;-74
2023/06/27 01:57:10;;;;;;;;;;;;;;;24.26;100.00;99397.31;5039287;28;19920;-75
2023/06/27 01:59:36;;;;;;;;;;;;;;;24.23;100.00;99387.81;5040121;28;20261;-74
2023/06/27 02:02:02;;;;;;;;;;;;;;;24.04;100.00;99392.47;5040090;28;19965;-75
2023/06/27 02:04:27;;;;;;;;;;;;;;;23.78;100.00;99390.22;5040014;28;19924;-75
2023/06/27 02:06:53;;;;;;;;;;;;;;;23.93;100.00;99389.75;5041548;28;19970;-75
2023/06/27 02:09:18;;;;;;;;;;;;;;;23.88;100.00;99390.47;5038933;28;19923;-73
2023/06/27 02:11:45;;;;;;;;;;;;;;;23.81;100.00;99389.75;5043138;28;19917;-75
2023/06/27 02:14:11;;;;;;;;;;;;;;;23.74;100.00;99399.81;5041691;28;19921;-75
2023/06/27 02:16:36;;;;;;;;;;;;;;;23.55;100.00;99398.25;5037976;28;19921;-75
2023/06/27 02:19:02;;;;;;;;;;;;;;;23.52;100.00;99398.69;5043831;28;19917;-74
2023/06/27 02:21:27;;;;;;;;;;;;;;;23.22;100.00;99396.81;5041301;28;19945;-75
2023/06/27 02:23:53;;;;;;;;;;;;;;;23.15;100.00;99396.09;5039868;28;19921;-74
2023/06/27 02:26:18;;;;;;;;;;;;;;;23.27;100.00;99399.66;5038436;28;19921;-75
2023/06/27 02:28:44;;;;;;;;;;;;;;;23.37;100.00;99398.28;5040861;28;19956;-73
2023/06/27 02:31:10;;;;;;;;;;;;;;;23.37;100.00;99393.72;5037297;28;19917;-75
2023/06/27 02:33:36;;;;;;;;;;;;;;;23.02;100.00;99396.28;5044735;28;19916;-74
2023/06/27 02:36:02;;;;;;;;;;;;;;;22.80;100.00;99393.22;5043911;28;19923;-74
2023/06/27 02:38:27;;;;;;;;;;;;;;;22.91;100.00;99402.44;5043800;28;20381;-75
2023/06/27 02:40:54;;;;;;;;;;;;;;;23.04;100.00;99402.25;5045037;28;19963;-73
2023/06/27 02:43:19;;;;;;;;;;;;;;;23.11;100.00;99394.91;5042155;28;20345;-74
2023/06/27 02:45:45;;;;;;;;;;;;;;;22.78;100.00;99406.09;5045963;28;19916;-73
2023/06/27 02:48:10;;;;;;;;;;;;;;;22.86;100.00;99396.88;5042289;28;19922;-75
2023/06/27 02:50:36;;;;;;;;;;;;;;;23.02;100.00;99401.66;5048809;28;19917;-74
2023/06/27 02:53:01;;;;;;;;;;;;;;;23.07;100.00;99393.72;5043954;28;19952;-75
2023/06/27 02:55:27;;;;;;;;;;;;;;;23.07;100.00;99403.66;5043572;28;19924;-75
2023/06/27 02:57:52;;;;;;;;;;;;;;;22.62;100.00;99403.97;5044824;28;19924;-75
2023/06/27 03:00:19;;;;;;;;;;;;;;;22.69;100.00;99395.81;5040898;28;19921;-74
2023/06/27 03:02:44;;;;;;;;;;;;;;;22.67;100.00;99400.63;5045386;28;19923;-74
2023/06/27 03:05:10;;;;;;;;;;;;;;;22.63;100.00;99402.09;5059834;28;20687;-75
2023/06/27 03:07:36;;;;;;;;;;;;;;;22.53;100.00;99402.63;5025652;28;19924;-73
2023/06/27 03:10:02;;;;;;;;;;;;;;;22.65;100.00;99405.38;5043507;28;19917;-73
2023/06/27 03:12:28;;;;;;;;;;;;;;;22.68;100.00;99404.97;5043058;28;19916;-73
2023/06/27 03:14:54;;;;;;;;;;;;;;;22.78;100.00;99408.78;5041040;28;20024;-75
2023/06/27 03:17:21;;;;;;;;;;;;;;;22.89;100.00;99403.69;5027435;28;19939;-77
2023/06/27 03:19:47;;;;;;;;;;;;;;;22.98;100.00;99395.06;5048557;28;19923;-77
2023/06/27 03:22:14;;;;;;;;;;;;;;;23.04;100.00;99399.53;5047941;28;20580;-73
2023/06/27 03:24:40;;;;;;;;;;;;;;;23.08;100.00;99400.75;5040793;28;19917;-75
2023/06/27 03:27:05;;;;;;;;;;;;;;;23.16;100.00;99400.41;5042706;28;19967;-73
2023/06/27 03:29:33;;;;;;;;;;;;;;;23.20;100.00;99398.94;5060550;28;19921;-75
2023/06/27 03:31:59;;;;;;;;;;;;;;;23.19;100.00;99402.69;5042512;28;19921;-74
2023/06/27 03:34:26;;;;;;;;;;;;;;;22.88;100.00;99402.88;5043085;28;19917;-75
2023/06/27 03:36:52;;;;;;;;;;;;;;;22.68;100.00;99405.75;5043256;28;20283;-73
2023/06/27 03:39:17;;;;;;;;;;;;;;;22.67;100.00;99401.44;5041974;28;20412;-74
2023/06/27 03:41:42;;;;;;;;;;;;;;;22.70;100.00;99410.91;5044778;28;19924;-74
2023/06/27 03:44:08;;;;;;;;;;;;;;;22.46;100.00;99413.44;5041435;28;20011;-74
2023/06/27 03:46:34;;;;;;;;;;;;;;;22.01;100.00;99409.34;5043967;28;19917;-75
2023/06/27 03:49:02;;;;;;;;;;;;;;;21.68;100.00;99408.75;5044575;28;19916;-73
2023/06/27 03:51:27;;;;;;;;;;;;;;;21.65;100.00;99405.47;5044825;28;20361;-75
2023/06/27 03:53:53;;;;;;;;;;;;;;;21.79;100.00;99410.75;5043976;28;19916;-75
2023/06/27 03:56:18;;;;;;;;;;;;;;;21.85;100.00;99416.06;5039966;28;20373;-74
2023/06/27 03:58:44;;;;;;;;;;;;;;;21.99;100.00;99406.03;5043999;28;19962;-75
2023/06/27 04:01:11;;;;;;;;;;;;;;;22.05;100.00;99418.59;5057248;28;19916;-72
2023/06/27 04:03:37;;;;;;;;;;;;;;;22.10;100.00;99415.25;5044002;28;20388;-74
2023/06/27 04:06:04;;;;;;;;;;;;;;;22.21;100.00;99420.72;5040588;28;19917;-73
2023/06/27 04:08:30;;;;;;;;;;;;;;;22.33;100.00;99421.63;5043083;28;20384;-73
2023/06/27 04:10:55;;;;;;;;;;;;;;;22.40;100.00;99419.72;5043379;28;19916;-73
2023/06/27 04:13:21;;;;;;;;;;;;;;;22.50;100.00;99418.41;5040217;28;19923;-73
2023/06/27 04:15:46;;;;;;;;;;;;;;;22.56;100.00;99422.88;5044812;28;19962;-74
2023/06/27 04:18:13;;;;;;;;;;;;;;;22.64;100.00;99425.25;5039819;28;19927;-74
2023/06/27 04:20:39;;;;;;;;;;;;;;;22.66;100.00;99432.06;5048167;28;20007;-74
2023/06/27 04:23:04;;;;;;;;;;;;;;;22.71;100.00;99426.84;5040421;28;20252;-73
2023/06/27 04:25:32;;;;;;;;;;;;;;;22.72;100.00;99425.00;5055339;22;19921;-88
2023/06/27 04:27:58;;;;;;;;;;;;;;;22.76;100.00;99423.50;5027420;28;19917;-87
2023/06/27 04:30:24;;;;;;;;;;;;;;;22.75;100.00;99430.75;5022120;28;19921;-89
2023/06/27 04:32:50;;;;;;;;;;;;;;;22.71;100.00;99432.22;5030083;28;20368;-89
2023/06/27 04:35:16;;;;;;;;;;;;;;;22.65;100.00;99433.09;5019559;28;20366;-89
2023/06/27 04:37:42;;;;;;;;;;;;;;;22.61;100.00;99431.09;5023557;28;19924;-88
2023/06/27 04:40:08;;;;;;;;;;;;;;;22.52;100.00;99438.63;5020713;28;20023;-87
2023/06/27 04:42:33;;;;;;;;;;;;;;;22.49;100.00;99430.19;5022054;28;20371;-90
2023/06/27 04:44:58;;;;;;;;;;;;;;;22.38;100.00;99426.38;5021244;28;20003;-88
2023/06/27 04:47:24;;;;;;;;;;;;;;;22.31;100.00;99426.44;5020973;28;19921;-89
2023/06/27 04:49:49;;;;;;;;;;;;;;;22.22;100.00;99425.06;5023861;28;20006;-90
2023/06/27 04:52:15;;;;;;;;;;;;;;;22.20;100.00;99419.09;5019104;28;19926;-92
2023/06/27 04:54:40;;;;;;;;;;;;;;;22.19;100.00;99428.19;5023274;28;19967;-91
2023/06/27 04:57:06;;;;;;;;;;;;;;;22.17;100.00;99422.22;5021462;28;19917;-90
2023/06/27 04:59:31;;;;;;;;;;;;;;;22.28;100.00;99426.84;5022368;28;20385;-92
2023/06/27 05:01:56;;;;;;;;;;;;;;;22.23;100.00;99434.78;5026208;28;19991;-91
2023/06/27 05:04:22;;;;;;;;;;;;;;;22.16;100.00;99433.19;5024458;28;19921;-86
2023/06/27 05:06:48;;;;;;;;;;;;;;;22.09;100.00;99438.59;5023305;28;19931;-83
2023/06/27 05:09:13;;;;;;;;;;;;;;;22.17;100.00;99430.28;5017772;28;19999;-81
2023/06/27 05:11:38;;;;;;;;;;;;;;;22.29;100.00;99428.50;5021921;28;20425;-83
2023/06/27 05:14:04;;;;;;;;;;;;;;;22.29;100.00;99431.19;5020399;28;20004;-81
2023/06/27 05:16:29;;;;;;;;;;;;;;;22.26;100.00;99434.34;5020389;28;19976;-81
2023/06/27 05:18:55;;;;;;;;;;;;;;;22.37;100.00;99436.31;5020160;28;20385;-80
2023/06/27 05:21:20;;;;;;;;;;;;;;;22.44;100.00;99434.34;5027854;28;19924;-81
2023/06/27 05:23:46;;;;;;;;;;;;;;;22.48;100.00;99432.06;5027555;28;20067;-81
2023/06/27 05:26:11;;;;;;;;;;;;;;;22.53;100.00;99431.38;5020394;28;20302;-80
2023/06/27 05:28:37;;;;;;;;;;;;;;;22.65;100.00;99421.53;5024611;28;20617;-79
2023/06/27 05:31:03;;;;;;;;;;;;;;;22.61;100.00;99437.31;5026149;28;19917;-81
2023/06/27 05:33:29;;;;;;;;;;;;;;;22.57;100.00;99430.69;5025507;28;19917;-81
2023/06/27 05:35:54;;;;;;;;;;;;;;;22.52;100.00;99432.41;5029298;28;20766;-82
2023/06/27 05:38:19;;;;;;;;;;;;;;;22.49;100.00;99443.63;5030585;28;19979;-80
2023/06/27 05:40:44;;;;;;;;;;;;;;;22.66;100.00;99432.06;5028724;28;20280;-80
2023/06/27 05:43:10;;;;;;;;;;;;;;;22.79;100.00;99439.22;5030243;28;19920;-80
2023/06/27 05:45:35;;;;;;;;;;;;;;;22.90;100.00;99437.63;5029779;28;20036;-80
2023/06/27 05:48:00;;;;;;;;;;;;;;;22.99;100.00;99438.94;5030145;28;19917;-81
2023/06/27 05:50:27;;;;;;;;;;;;;;;23.06;100.00;99445.91;5025359;28;19921;-79
2023/06/27 05:52:52;;;;;;;;;;;;;;;23.21;100.00;99437.41;5019988;28;20000;-81
2023/06/27 05:55:18;;;;;;;;;;;;;;;23.36;100.00;99439.72;5022180;28;19944;-82
2023/06/27 05:57:43;;;;;;;;;;;;;;;23.42;100.00;99441.50;5026797;28;19924;-80
2023/06/27 06:00:10;;;;;;;;;;;;;;;23.27;100.00;99437.34;5028041;28;20376;-80
2023/06/27 06:02:41;;;;;;;;;;;;;;;23.41;100.00;99442.53;5029326;28;19921;-82
2023/06/27 06:05:07;;;;;;;;;;;;;;;23.47;100.00;99442.50;5027068;28;19984;-80
2023/06/27 06:07:32;;;;;;;;;;;;;;;23.57;100.00;99442.75;5030931;28;19979;-85
2023/06/27 06:09:57;;;;;;;;;;;;;;;23.68;100.00;99449.22;5040429;28;19932;-85
2023/06/27 06:12:23;;;;;;;;;;;;;;;23.72;100.00;99442.34;5047497;28;20369;-85
2023/06/27 06:14:49;;;;;;;;;;;;;;;23.83;100.00;99441.53;5031993;28;20019;-84
2023/06/27 06:17:14;;;;;;;;;;;;;;;23.80;100.00;99442.00;5032127;28;20448;-86
2023/06/27 06:19:40;;;;;;;;;;;;;;;23.63;100.00;99441.00;5029769;28;19921;-86
2023/06/27 06:22:05;;;;;;;;;;;;;;;23.62;100.00;99450.16;5025232;28;20266;-86
2023/06/27 06:24:31;;;;;;;;;;;;;;;23.73;100.00;99445.84;5025045;28;20373;-85
2023/06/27 06:26:56;;;;;;;;;;;;;;;23.82;100.00;99442.59;5023861;28;20003;-85
2023/06/27 06:29:21;;;;;;;;;;;;;;;23.96;100.00;99449.44;5024605;28;20277;-86
2023/06/27 06:31:47;;;;;;;;;;;;;;;24.04;100.00;99446.38;5026735;28;19963;-86
2023/06/27 06:34:12;;;;;;;;;;;;;;;24.12;100.00;99449.78;5023438;28;19979;-86
2023/06/27 06:36:38;;;;;;;;;;;;;;;24.16;100.00;99445.56;5025281;28;19921;-86
2023/06/27 06:39:03;;;;;;;;;;;;;;;24.24;100.00;99447.94;5023625;28;19949;-86
2023/06/27 06:41:29;;;;;;;;;;;;;;;24.31;100.00;99445.97;5023728;28;19990;-86
2023/06/27 06:43:56;;;;;;;;;;;;;;;24.40;100.00;99441.84;5022990;28;19921;-86
2023/06/27 06:46:23;;;;;;;;;;;;;;;24.47;100.00;99448.78;5022818;28;19924;-86
2023/06/27 06:48:49;;;;;;;;;;;;;;;24.49;100.00;99437.75;5025406;28;19924;-84
2023/06/27 06:51:14;;;;;;;;;;;;;;;24.60;100.00;99442.31;5028838;28;19921;-86
2023/06/27 06:53:40;;;;;;;;;;;;;;;24.73;100.00;99439.38;5033872;28;20329;-87
2023/06/27 06:56:05;;;;;;;;;;;;;;;24.84;100.00;99437.72;5032740;28;19916;-87
2023/06/27 06:58:30;;;;;;;;;;;;;;;24.97;100.00;99433.97;5030518;28;19921;-87
2023/06/27 07:00:55;;;;;;;;;;;;;;;25.10;100.00;99436.38;5027064;28;19920;-87
2023/06/27 07:03:21;;;;;;;;;;;;;;;25.19;100.00;99440.34;5032467;28;19920;-87
2023/06/27 07:05:46;;;;;;;;;;;;;;;25.28;100.00;99425.38;5028694;28;20293;-86
2023/06/27 07:08:11;;;;;;;;;;;;;;;25.35;100.00;99428.75;5028839;28;20363;-86
2023/06/27 07:10:37;;;;;;;;;;;;;;;25.42;100.00;99432.13;5040035;28;20445;-86
2023/06/27 07:13:02;;;;;;;;;;;;;;;25.50;100.00;99426.34;5029501;28;19921;-87
2023/06/27 07:15:29;;;;;;;;;;;;;;;25.57;100.00;99427.03;5024673;28;19921;-86
2023/06/27 07:17:54;;;;;;;;;;;;;;;25.59;100.00;99422.22;5030742;28;19917;-87
2023/06/27 07:20:21;;;;;;;;;;;;;;;25.62;100.00;99427.13;5031252;28;20350;-86
2023/06/27 07:22:47;;;;;;;;;;;;;;;25.69;100.00;99419.69;5029328;28;19917;-86
2023/06/27 07:25:12;;;;;;;;;;;;;;;25.68;100.00;99425.34;5029471;28;20022;-86
2023/06/27 07:27:37;;;;;;;;;;;;;;;25.77;100.00;99425.75;5029869;28;20388;-87
2023/06/27 07:30:03;;;;;;;;;;;;;;;25.82;100.00;99423.13;5033694;28;20383;-88
2023/06/27 07:32:28;;;;;;;;;;;;;;;25.85;100.00;99425.38;5028841;28;19923;-87
2023/06/27 07:34:54;;;;;;;;;;;;;;;25.90;100.00;99428.16;5032180;28;20380;-86
2023/06/27 07:37:19;;;;;;;;;;;;;;;26.00;100.00;99431.00;5026053;28;19964;-88
2023/06/27 07:39:44;;;;;;;;;;;;;;;26.05;100.00;99433.78;5031259;28;19917;-85
2023/06/27 07:42:09;;;;;;;;;;;;;;;26.12;100.00;99434.47;5026991;28;19960;-85
2023/06/27 07:44:35;;;;;;;;;;;;;;;26.20;100.00;99430.53;5024875;28;19917;-84
2023/06/27 07:47:01;;;;;;;;;;;;;;;26.26;100.00;99429.56;5021827;28;19921;-86
2023/06/27 07:49:26;;;;;;;;;;;;;;;26.28;100.00;99428.22;5041185;28;19963;-85
2023/06/27 07:51:51;;;;;;;;;;;;;;;26.29;100.00;99434.47;5036284;28;20388;-86
2023/06/27 07:54:21;;;;;;;;;;;;;;;26.25;100.00;99434.16;5040956;28;20296;-87
2023/06/27 07:56:47;;;;;;;;;;;;;;;26.15;100.00;99436.69;5024735;28;19920;-85
2023/06/27 07:59:13;;;;;;;;;;;;;;;26.22;100.00;99434.59;5025528;28;19936;-86
2023/06/27 08:01:40;;;;;;;;;;;;;;;26.28;100.00;99428.22;5026354;28;19917;-87
2023/06/27 08:04:05;;;;;;;;;;;;;;;26.34;100.00;99432.66;5029821;28;19925;-84
2023/06/27 08:06:31;;;;;;;;;;;;;;;26.40;100.00;99431.66;5030820;28;19982;-86
2023/06/27 08:08:56;;;;;;;;;;;;;;;26.39;100.00;99440.84;5025898;28;19917;-86
2023/06/27 08:11:21;;;;;;;;;;;;;;;26.32;100.00;99426.69;5028248;28;20007;-86
2023/06/27 08:13:47;;;;;;;;;;;;;;;26.39;100.00;99424.59;5029260;28;19968;-88
2023/06/27 08:16:12;;;;;;;;;;;;;;;26.53;100.00;99424.25;5028966;28;19916;-88
2023/06/27 08:18:37;;;;;;;;;;;;;;;26.65;100.00;99423.09;5024662;28;20389;-86
2023/06/27 08:21:04;;;;;;;;;;;;;;;26.79;100.00;99418.13;5033183;28;20281;-86
2023/06/27 08:23:29;;;;;;;;;;;;;;;26.87;100.00;99414.97;5030225;28;20000;-86
2023/06/27 08:25:55;;;;;;;;;;;;;;;26.96;100.00;99413.50;5027364;28;20096;-87
2023/06/27 08:28:20;;;;;;;;;;;;;;;27.06;100.00;99424.44;5028319;28;19959;-88
2023/06/27 08:30:47;;;;;;;;;;;;;;;27.16;100.00;99418.31;5021797;28;19917;-86
2023/06/27 08:33:12;;;;;;;;;;;;;;;27.22;100.00;99417.31;5027175;28;19932;-87
2023/06/27 08:35:38;;;;;;;;;;;;;;;27.26;100.00;99423.88;5027943;28;20000;-86
2023/06/27 08:38:04;;;;;;;;;;;;;;;27.29;100.00;99413.34;5028859;28;20012;-85
2023/06/27 08:40:32;;;;;;;;;;;;;;;27.36;100.00;99417.72;5024449;28;19979;-86
2023/06/27 08:42:57;;;;;;;;;;;;;;;27.38;100.00;99421.84;5030319;28;19928;-86
2023/06/27 08:45:22;;;;;;;;;;;;;;;27.30;100.00;99414.97;5027385;28;19917;-85
2023/06/27 08:47:48;;;;;;;;;;;;;;;27.32;100.00;99412.03;5028147;28;19943;-84
2023/06/27 08:50:14;;;;;;;;;;;;;;;27.33;100.00;99408.25;5027817;28;19975;-85
2023/06/27 08:52:43;;;;;;;;;;;;;;;27.39;100.00;99401.78;5030449;28;19917;-85
2023/06/27 08:55:41;;;;;;;;;;;;;;;27.50;100.00;99394.59;5024794;28;20015;-85
2023/06/27 08:58:08;;;;;;;;;;;;;;;27.56;100.00;99402.53;4983751;28;20371;-87
2023/06/27 09:00:34;;;;;;;;;;;;;;;27.66;100.00;99397.19;5024735;28;19921;-87
2023/06/27 09:03:00;;;;;;;;;;;;;;;27.77;100.00;99392.69;5024153;28;20055;-85
2023/06/27 09:05:26;;;;;;;;;;;;;;;27.89;100.00;99390.59;5027797;28;19917;-83
2023/06/27 09:07:51;;;;;;;;;;;;;;;27.99;100.00;99385.25;5027690;28;19917;-85
2023/06/27 09:10:17;;;;;;;;;;;;;;;28.09;100.00;99384.53;5026536;28;19913;-85
2023/06/27 09:12:43;;;;;;;;;;;;;;;28.20;100.00;99385.44;5026933;28;20361;-86
2023/06/27 09:15:10;;;;;;;;;;;;;;;28.27;100.00;99383.31;5031183;28;19917;-82
2023/06/27 09:17:36;;;;;;;;;;;;;;;28.33;100.00;99391.22;5029789;28;19916;-86
2023/06/27 09:20:01;;;;;;;;;;;;;;;28.37;100.00;99386.91;5027140;28;19936;-86
2023/06/27 09:22:27;;;;;;;;;;;;;;;28.42;100.00;99383.41;5032179;28;19916;-85
2023/06/27 09:25:11;;;;;;;;;;;;;;;28.48;100.00;99382.34;5029473;28;19923;-87
2023/06/27 09:27:37;;;;;;;;;;;;;;;28.51;100.00;99388.06;5025680;28;19917;-87
2023/06/27 09:30:04;;;;;;;;;;;;;;;28.48;100.00;99387.78;5027063;28;19913;-86
2023/06/27 09:32:30;;;;;;;;;;;;;;;28.50;100.00;99388.34;5019955;28;20380;-85
2023/06/27 09:34:55;;;;;;;;;;;;;;;28.51;100.00;99387.25;5024438;28;19913;-86
2023/06/27 09:37:27;;;;;;;;;;;;;;;28.56;100.00;99386.47;5035590;28;19921;-87
2023/06/27 09:39:53;;;;;;;;;;;;;;;28.59;100.00;99388.63;5029728;28;19917;-87
2023/06/27 09:42:18;;;;;;;;;;;;;;;28.62;100.00;99377.25;5008603;28;19917;-86
2023/06/27 09:44:43;;;;;;;;;;;;;;;28.68;100.00;99373.50;5024018;28;19917;-86
2023/06/27 09:47:10;;;;;;;;;;;;;;;28.75;100.00;99380.31;5022605;28;19921;-86
2023/06/27 09:49:38;;;;;;;;;;;;;;;28.79;99.62;99378.72;5029056;28;19940;-86
2023/06/27 09:52:04;;;;;;;;;;;;;;;28.80;98.31;99369.50;5024228;28;19964;-87
2023/06/27 09:54:30;;;;;;;;;;;;;;;28.76;98.58;99373.81;5022972;28;20350;-87
2023/06/27 09:56:56;;;;;;;;;;;;;;;28.79;98.89;99375.19;5026876;28;19925;-85
2023/06/27 09:59:22;;;;;;;;;;;;;;;28.82;98.92;99371.94;5027356;28;19917;-87
2023/06/27 10:01:49;;;;;;;;;;;;;;;28.84;98.25;99367.88;5021347;28;20341;-85
2023/06/27 10:04:14;;;;;;;;;;;;;;;28.85;97.41;99366.81;5022025;28;20003;-88
2023/06/27 10:06:41;;;;;;;;;;;;;;;28.89;97.70;99370.63;5025972;28;20023;-87
2023/06/27 10:09:07;;;;;;;;;;;;;;;28.92;98.10;99366.56;5025020;28;20350;-87
2023/06/27 10:11:32;;;;;;;;;;;;;;;28.92;98.24;99370.06;5024572;28;20027;-87
2023/06/27 10:13:58;;;;;;;;;;;;;;;28.96;98.04;99366.84;5027323;28;20082;-86
2023/06/27 10:16:23;;;;;;;;;;;;;;;28.95;97.52;99359.75;5022503;28;20389;-86
2023/06/27 10:18:49;;;;;;;;;;;;;;;28.94;96.91;99352.69;5029406;28;19940;-84
2023/06/27 10:21:16;;;;;;;;;;;;;;;28.96;97.05;99350.53;5030025;28;19920;-84
2023/06/27 10:23:44;;;;;;;;;;;;;;;28.97;95.29;99352.16;5025107;28;19917;-86
2023/06/27 10:26:09;;;;;;;;;;;;;;;29.00;95.61;99347.00;5026137;28;19921;-87
2023/06/27 10:28:35;;;;;;;;;;;;;;;29.05;95.12;99344.28;5026962;28;19923;-86
2023/06/27 10:31:04;;;;;;;;;;;;;;;29.13;95.40;99348.41;5022058;28;19917;-85
2023/06/27 10:33:31;;;;;;;;;;;;;;;29.18;95.81;99342.97;5028302;28;20015;-88
2023/06/27 10:36:05;;;;;;;;;;;;;;;29.24;94.50;99348.16;5026957;28;19913;-87
2023/06/27 10:38:40;;;;;;;;;;;;;;;29.31;95.04;99345.16;5025726;28;19917;-86
2023/06/27 10:41:06;;;;;;;;;;;;;;;29.38;94.23;99353.09;5025532;28;20417;-86
2023/06/27 10:43:52;;;;;;;;;;;;;;;29.41;92.95;99342.50;5023585;28;20286;-84
2023/06/27 10:46:21;;;;;;;;;;;;;;;29.46;93.18;99337.06;5028216;28;19955;-87
2023/06/27 10:48:51;;;;;;;;;;;;;;;29.51;93.23;99331.59;5025447;28;19963;-87
2023/06/27 10:51:20;;;;;;;;;;;;;;;29.55;92.58;99332.72;5024948;28;19923;-86
2023/06/27 10:54:05;;;;;;;;;;;;;;;29.57;92.24;99319.66;5026247;28;19963;-86
2023/06/27 10:56:32;;;;;;;;;;;;;;;29.58;91.51;99321.28;5027234;28;19917;-86
2023/06/27 10:58:59;;;;;;;;;;;;;;;29.61;91.05;99314.50;5030092;28;19921;-86
2023/06/27 11:01:25;;;;;;;;;;;;;;;29.62;90.58;99314.22;5031366;28;19917;-86
2023/06/27 11:03:56;;;;;;;;;;;;;;;29.64;91.16;99309.31;5026434;28;20407;-86
2023/06/27 11:06:23;;;;;;;;;;;;;;;29.64;90.97;99303.88;5031258;28;19985;-86
2023/06/27 11:08:54;;;;;;;;;;;;;;;29.66;91.36;99299.00;5024494;28;19945;-87
2023/06/27 11:11:26;;;;;;;;;;;;;;;29.70;91.44;99294.63;5025616;28;19924;-84
2023/06/27 11:14:03;;;;;;;;;;;;;;;29.77;89.69;99293.53;5030527;28;19962;-86
2023/06/27 11:16:28;;;;;;;;;;;;;;;29.84;90.27;99296.78;5026883;28;19924;-86
2023/06/27 11:18:54;;;;;;;;;;;;;;;29.90;90.67;99291.06;5033992;28;19917;-86
2023/06/27 11:21:19;;;;;;;;;;;;;;;29.95;89.86;99293.00;5037154;28;19964;-83
2023/06/27 11:23:45;;;;;;;;;;;;;;;29.95;89.60;99293.00;5028660;28;19924;-85
2023/06/27 11:26:10;;;;;;;;;;;;;;;29.99;89.63;99294.06;5029157;28;20455;-85
2023/06/27 11:28:35;;;;;;;;;;;;;;;30.06;87.23;99291.88;5029471;28;19921;-84
2023/06/27 11:31:01;;;;;;;;;;;;;;;30.14;86.44;99285.06;5024352;28;19914;-86
2023/06/27 11:33:27;;;;;;;;;;;;;;;30.18;86.86;99273.34;5032740;28;19917;-85
2023/06/27 11:35:55;;;;;;;;;;;;;;;30.23;86.70;99273.31;5025925;28;19924;-86
2023/06/27 11:38:22;;;;;;;;;;;;;;;30.29;85.85;99271.38;5028753;28;19990;-86
2023/06/27 11:40:49;;;;;;;;;;;;;;;30.32;85.62;99270.84;5028309;28;19924;-86
2023/06/27 11:43:15;;;;;;;;;;;;;;;30.35;84.91;99273.81;5028676;28;19917;-87
2023/06/27 11:45:44;;;;;;;;;;;;;;;30.39;85.43;99268.66;5027202;28;19979;-86
2023/06/27 11:48:09;;;;;;;;;;;;;;;30.44;85.04;99258.53;5025863;28;20704;-86
2023/06/27 11:50:34;;;;;;;;;;;;;;;30.50;83.86;99262.91;5030379;28;19920;-86
2023/06/27 11:53:00;;;;;;;;;;;;;;;30.59;84.02;99254.94;5029123;28;19920;-86
2023/06/27 11:55:26;;;;;;;;;;;;;;;30.69;83.63;99248.66;5027032;28;19924;-86
2023/06/27 11:57:52;;;;;;;;;;;;;;;30.79;81.65;99259.47;5026311;28;20011;-85
2023/06/27 12:00:24;;;;;;;;;;;;;;;30.85;81.02;99248.25;5029882;28;20377;-85
2023/06/27 12:02:51;;;;;;;;;;;;;;;30.93;80.17;99241.38;5029697;28;19917;-86
2023/06/27 12:05:16;;;;;;;;;;;;;;;31.03;80.18;99238.59;5024189;28;19960;-85
2023/06/27 12:07:54;;;;;;;;;;;;;;;31.12;80.02;99233.38;5027992;28;19968;-86
2023/06/27 12:10:19;;;;;;;;;;;;;;;31.20;79.64;99233.59;5023699;28;20293;-85
2023/06/27 12:12:45;;;;;;;;;;;;;;;31.31;79.05;99223.41;5028687;28;19916;-86
2023/06/27 12:15:11;;;;;;;;;;;;;;;31.45;76.05;99218.09;5026496;28;19932;-86
2023/06/27 12:17:37;;;;;;;;;;;;;;;31.59;76.23;99224.53;5030069;28;19916;-86
2023/06/27 12:20:07;;;;;;;;;;;;;;;31.74;72.28;99218.13;5028645;28;20357;-86
2023/06/27 12:22:32;;;;;;;;;;;;;;;31.80;71.93;99215.03;5032760;28;19917;-86
2023/06/27 12:24:57;;;;;;;;;;;;;;;31.89;72.36;99207.84;5026357;28;19917;-86
2023/06/27 12:27:23;;;;;;;;;;;;;;;32.03;72.03;99203.31;5027672;28;19971;-86
2023/06/27 12:29:48;;;;;;;;;;;;;;;32.24;71.97;99198.41;5027456;28;20364;-87
2023/06/27 12:32:13;;;;;;;;;;;;;;;32.42;69.38;99199.56;5028018;28;19927;-86
2023/06/27 12:34:39;;;;;;;;;;;;;;;32.55;69.72;99198.81;5028163;28;20020;-85